sensor_id;sensor_type;location;lat;lon;timestamp;temperature;humidity
52495;DHT22;38405;53.212;5.660;2022-10-31T00:02:25;10.80;99.90
52495;DHT22;38405;53.212;5.660;2022-10-31T00:04:50;10.80;99.90
52495;DHT22;38405;53.212;5.660;2022-10-31T00:07:16;10.90;99.90
52495;DHT22;38405;53.212;5.660;2022-10-31T00:09:41;10.60;99.90
52495;DHT22;38405;53.212;5.660;2022-10-31T00:12:07;10.60;99.90
52495;DHT22;38405;53.212;5.660;2022-10-31T00:14:33;10.60;99.90
52495;DHT22;38405;53.212;5.660;2022-10-31T00:16:58;10.60;99.90
52495;DHT22;38405;53.212;5.660;2022-10-31T00:19:24;10.60;99.90
52495;DHT22;38405;53.212;5.660;2022-10-31T00:21:51;10.60;99.90
52495;DHT22;38405;53.212;5.660;2022-10-31T00:24:17;10.60;99.90
52495;DHT22;38405;53.212;5.660;2022-10-31T00:26:43;10.60;99.90
52495;DHT22;38405;53.212;5.660;2022-10-31T00:29:08;10.60;99.90
52495;DHT22;38405;53.212;5.660;2022-10-31T00:31:34;10.70;99.90
52495;DHT22;38405;53.212;5.660;2022-10-31T00:33:59;10.60;99.90
52495;DHT22;38405;53.212;5.660;2022-10-31T00:36:28;10.70;99.90
52495;DHT22;38405;53.212;5.660;2022-10-31T00:38:53;10.70;99.90
52495;DHT22;38405;53.212;5.660;2022-10-31T00:41:19;10.70;99.90
52495;DHT22;38405;53.212;5.660;2022-10-31T00:43:45;10.70;99.90
52495;DHT22;38405;53.212;5.660;2022-10-31T00:46:12;10.80;99.90
52495;DHT22;38405;53.212;5.660;2022-10-31T00:48:38;10.80;99.90
52495;DHT22;38405;53.212;5.660;2022-10-31T00:51:06;11.00;99.90
52495;DHT22;38405;53.212;5.660;2022-10-31T00:53:32;10.60;99.90
52495;DHT22;38405;53.212;5.660;2022-10-31T00:55:57;10.60;99.90
52495;DHT22;38405;53.212;5.660;2022-10-31T00:58:23;10.60;99.90
52495;DHT22;38405;53.212;5.660;2022-10-31T01:00:49;10.60;99.90
52495;DHT22;38405;53.212;5.660;2022-10-31T01:03:25;10.50;99.90
52495;DHT22;38405;53.212;5.660;2022-10-31T01:06:11;10.60;99.90
52495;DHT22;38405;53.212;5.660;2022-10-31T01:08:38;10.60;99.90
52495;DHT22;38405;53.212;5.660;2022-10-31T01:11:08;10.60;99.90
52495;DHT22;38405;53.212;5.660;2022-10-31T01:13:34;10.60;99.90
52495;DHT22;38405;53.212;5.660;2022-10-31T01:16:01;10.60;99.90
52495;DHT22;38405;53.212;5.660;2022-10-31T01:18:27;10.60;99.90
52495;DHT22;38405;53.212;5.660;2022-10-31T01:21:00;10.60;99.90
52495;DHT22;38405;53.212;5.660;2022-10-31T01:23:27;10.50;99.90
52495;DHT22;38405;53.212;5.660;2022-10-31T01:28:28;10.60;99.90
52495;DHT22;38405;53.212;5.660;2022-10-31T01:30:54;10.60;99.90
52495;DHT22;38405;53.212;5.660;2022-10-31T01:33:20;10.60;99.90
52495;DHT22;38405;53.212;5.660;2022-10-31T01:35:45;10.80;99.90
52495;DHT22;38405;53.212;5.660;2022-10-31T01:38:11;10.60;99.90
52495;DHT22;38405;53.212;5.660;2022-10-31T01:40:36;10.60;99.90
52495;DHT22;38405;53.212;5.660;2022-10-31T01:43:02;10.60;99.90
52495;DHT22;38405;53.212;5.660;2022-10-31T01:45:28;10.60;99.90
52495;DHT22;38405;53.212;5.660;2022-10-31T01:47:53;10.60;99.90
52495;DHT22;38405;53.212;5.660;2022-10-31T01:50:32;10.60;99.90
52495;DHT22;38405;53.212;5.660;2022-10-31T01:53:01;10.60;99.90
52495;DHT22;38405;53.212;5.660;2022-10-31T01:55:30;10.60;99.90
52495;DHT22;38405;53.212;5.660;2022-10-31T01:58:22;10.60;99.90
52495;DHT22;38405;53.212;5.660;2022-10-31T02:00:49;10.50;99.90
52495;DHT22;38405;53.212;5.660;2022-10-31T02:03:16;10.40;99.90
52495;DHT22;38405;53.212;5.660;2022-10-31T02:05:42;10.40;99.90
52495;DHT22;38405;53.212;5.660;2022-10-31T02:08:31;10.50;99.90
52495;DHT22;38405;53.212;5.660;2022-10-31T02:10:58;10.30;99.90
52495;DHT22;38405;53.212;5.660;2022-10-31T02:13:26;10.40;99.90
52495;DHT22;38405;53.212;5.660;2022-10-31T02:15:55;10.30;99.90
52495;DHT22;38405;53.212;5.660;2022-10-31T02:18:22;10.40;99.90
52495;DHT22;38405;53.212;5.660;2022-10-31T02:21:13;10.30;99.90
52495;DHT22;38405;53.212;5.660;2022-10-31T02:23:56;10.30;99.90
52495;DHT22;38405;53.212;5.660;2022-10-31T02:27:04;10.40;99.90
52495;DHT22;38405;53.212;5.660;2022-10-31T02:29:54;10.20;99.90
52495;DHT22;38405;53.212;5.660;2022-10-31T02:32:29;10.10;99.90
52495;DHT22;38405;53.212;5.660;2022-10-31T02:35:26;10.00;99.90
52495;DHT22;38405;53.212;5.660;2022-10-31T02:46:53;9.70;99.90
52495;DHT22;38405;53.212;5.660;2022-10-31T02:49:33;9.60;99.90
52495;DHT22;38405;53.212;5.660;2022-10-31T02:52:01;9.60;99.90
52495;DHT22;38405;53.212;5.660;2022-10-31T02:54:27;9.50;99.90
52495;DHT22;38405;53.212;5.660;2022-10-31T02:57:04;9.40;99.90
52495;DHT22;38405;53.212;5.660;2022-10-31T02:59:33;9.30;99.90
52495;DHT22;38405;53.212;5.660;2022-10-31T03:02:14;9.20;99.90
52495;DHT22;38405;53.212;5.660;2022-10-31T03:07:23;9.10;99.90
52495;DHT22;38405;53.212;5.660;2022-10-31T03:12:59;9.20;99.90
52495;DHT22;38405;53.212;5.660;2022-10-31T03:15:30;9.20;99.90
52495;DHT22;38405;53.212;5.660;2022-10-31T03:21:29;9.10;99.90
52495;DHT22;38405;53.212;5.660;2022-10-31T03:23:50;9.20;99.90
52495;DHT22;38405;53.212;5.660;2022-10-31T03:26:17;9.10;99.90
52495;DHT22;38405;53.212;5.660;2022-10-31T03:29:04;9.20;99.90
52495;DHT22;38405;53.212;5.660;2022-10-31T03:31:35;9.10;99.90
52495;DHT22;38405;53.212;5.660;2022-10-31T03:34:02;9.40;99.90
52495;DHT22;38405;53.212;5.660;2022-10-31T03:36:30;9.10;99.90
52495;DHT22;38405;53.212;5.660;2022-10-31T03:38:57;9.10;99.90
52495;DHT22;38405;53.212;5.660;2022-10-31T03:41:28;9.10;99.90
52495;DHT22;38405;53.212;5.660;2022-10-31T03:44:01;9.10;99.90
52495;DHT22;38405;53.212;5.660;2022-10-31T03:46:28;9.20;99.90
52495;DHT22;38405;53.212;5.660;2022-10-31T03:48:54;9.10;99.90
52495;DHT22;38405;53.212;5.660;2022-10-31T03:51:27;9.10;99.90
52495;DHT22;38405;53.212;5.660;2022-10-31T03:54:40;9.10;99.90
52495;DHT22;38405;53.212;5.660;2022-10-31T04:00:06;9.10;99.90
52495;DHT22;38405;53.212;5.660;2022-10-31T04:02:34;9.00;99.90
52495;DHT22;38405;53.212;5.660;2022-10-31T04:05:00;9.10;99.90
52495;DHT22;38405;53.212;5.660;2022-10-31T04:07:31;9.20;99.90
52495;DHT22;38405;53.212;5.660;2022-10-31T04:10:00;9.20;99.90
52495;DHT22;38405;53.212;5.660;2022-10-31T04:12:29;9.30;99.90
52495;DHT22;38405;53.212;5.660;2022-10-31T04:14:57;9.20;99.90
52495;DHT22;38405;53.212;5.660;2022-10-31T04:17:25;9.20;99.90
52495;DHT22;38405;53.212;5.660;2022-10-31T04:19:52;9.60;99.90
52495;DHT22;38405;53.212;5.660;2022-10-31T04:22:18;9.30;99.90
52495;DHT22;38405;53.212;5.660;2022-10-31T04:24:43;9.20;99.90
52495;DHT22;38405;53.212;5.660;2022-10-31T04:27:09;9.20;99.90
52495;DHT22;38405;53.212;5.660;2022-10-31T04:29:35;9.30;99.90
52495;DHT22;38405;53.212;5.660;2022-10-31T04:32:00;9.40;99.90
52495;DHT22;38405;53.212;5.660;2022-10-31T04:34:26;9.30;99.90
52495;DHT22;38405;53.212;5.660;2022-10-31T04:36:51;9.40;99.90
52495;DHT22;38405;53.212;5.660;2022-10-31T04:39:17;9.40;99.90
52495;DHT22;38405;53.212;5.660;2022-10-31T04:41:43;9.30;99.90
52495;DHT22;38405;53.212;5.660;2022-10-31T04:44:08;9.30;99.90
52495;DHT22;38405;53.212;5.660;2022-10-31T04:46:34;9.60;99.90
52495;DHT22;38405;53.212;5.660;2022-10-31T04:48:59;9.30;99.90
52495;DHT22;38405;53.212;5.660;2022-10-31T04:51:25;9.30;99.90
52495;DHT22;38405;53.212;5.660;2022-10-31T04:53:51;9.40;99.90
52495;DHT22;38405;53.212;5.660;2022-10-31T04:56:16;9.50;99.90
52495;DHT22;38405;53.212;5.660;2022-10-31T04:58:42;9.30;99.90
52495;DHT22;38405;53.212;5.660;2022-10-31T05:01:07;9.30;99.90
52495;DHT22;38405;53.212;5.660;2022-10-31T05:03:33;9.30;99.90
52495;DHT22;38405;53.212;5.660;2022-10-31T05:05:58;9.40;99.90
52495;DHT22;38405;53.212;5.660;2022-10-31T05:08:24;9.40;99.90
52495;DHT22;38405;53.212;5.660;2022-10-31T05:10:50;9.50;99.90
52495;DHT22;38405;53.212;5.660;2022-10-31T05:13:15;9.50;99.90
52495;DHT22;38405;53.212;5.660;2022-10-31T05:15:41;9.50;99.90
52495;DHT22;38405;53.212;5.660;2022-10-31T05:18:07;9.40;99.90
52495;DHT22;38405;53.212;5.660;2022-10-31T05:20:33;9.40;99.90
52495;DHT22;38405;53.212;5.660;2022-10-31T05:22:58;9.40;99.90
52495;DHT22;38405;53.212;5.660;2022-10-31T05:25:27;9.40;99.90
52495;DHT22;38405;53.212;5.660;2022-10-31T05:27:53;9.40;99.90
52495;DHT22;38405;53.212;5.660;2022-10-31T05:30:25;9.40;99.90
52495;DHT22;38405;53.212;5.660;2022-10-31T05:32:51;9.40;99.90
52495;DHT22;38405;53.212;5.660;2022-10-31T05:35:22;9.80;99.90
52495;DHT22;38405;53.212;5.660;2022-10-31T05:37:48;9.30;99.90
52495;DHT22;38405;53.212;5.660;2022-10-31T05:40:16;9.20;99.90
52495;DHT22;38405;53.212;5.660;2022-10-31T05:42:43;9.20;99.90
52495;DHT22;38405;53.212;5.660;2022-10-31T05:45:10;9.10;99.90
52495;DHT22;38405;53.212;5.660;2022-10-31T05:47:36;9.40;99.90
52495;DHT22;38405;53.212;5.660;2022-10-31T05:50:02;9.20;99.90
52495;DHT22;38405;53.212;5.660;2022-10-31T05:52:28;8.90;99.90
52495;DHT22;38405;53.212;5.660;2022-10-31T05:54:54;8.90;99.90
52495;DHT22;38405;53.212;5.660;2022-10-31T05:57:19;8.80;99.90
52495;DHT22;38405;53.212;5.660;2022-10-31T05:59:45;9.00;99.90
52495;DHT22;38405;53.212;5.660;2022-10-31T06:02:11;9.00;99.90
52495;DHT22;38405;53.212;5.660;2022-10-31T06:04:36;8.90;99.90
52495;DHT22;38405;53.212;5.660;2022-10-31T06:07:02;8.90;99.90
52495;DHT22;38405;53.212;5.660;2022-10-31T06:09:27;8.80;99.90
52495;DHT22;38405;53.212;5.660;2022-10-31T06:11:53;8.70;99.90
52495;DHT22;38405;53.212;5.660;2022-10-31T06:14:19;9.00;99.90
52495;DHT22;38405;53.212;5.660;2022-10-31T06:16:44;8.60;99.90
52495;DHT22;38405;53.212;5.660;2022-10-31T06:19:10;8.50;99.90
52495;DHT22;38405;53.212;5.660;2022-10-31T06:21:35;8.90;99.90
52495;DHT22;38405;53.212;5.660;2022-10-31T06:24:01;8.40;99.90
52495;DHT22;38405;53.212;5.660;2022-10-31T06:26:27;8.30;99.90
52495;DHT22;38405;53.212;5.660;2022-10-31T06:28:52;8.20;99.90
52495;DHT22;38405;53.212;5.660;2022-10-31T06:31:18;8.40;99.90
52495;DHT22;38405;53.212;5.660;2022-10-31T06:33:44;8.20;99.90
52495;DHT22;38405;53.212;5.660;2022-10-31T06:36:10;8.10;99.90
52495;DHT22;38405;53.212;5.660;2022-10-31T06:38:35;8.10;99.90
52495;DHT22;38405;53.212;5.660;2022-10-31T06:41:05;8.20;99.90
52495;DHT22;38405;53.212;5.660;2022-10-31T06:43:31;8.10;99.90
52495;DHT22;38405;53.212;5.660;2022-10-31T06:45:57;8.40;99.90
52495;DHT22;38405;53.212;5.660;2022-10-31T06:48:26;8.10;99.90
52495;DHT22;38405;53.212;5.660;2022-10-31T06:50:52;8.20;99.90
52495;DHT22;38405;53.212;5.660;2022-10-31T06:53:18;8.20;99.90
52495;DHT22;38405;53.212;5.660;2022-10-31T06:55:43;8.30;99.90
52495;DHT22;38405;53.212;5.660;2022-10-31T06:58:10;8.30;99.90
52495;DHT22;38405;53.212;5.660;2022-10-31T07:00:36;8.40;99.90
52495;DHT22;38405;53.212;5.660;2022-10-31T07:03:04;8.50;99.90
52495;DHT22;38405;53.212;5.660;2022-10-31T07:05:31;8.50;99.90
52495;DHT22;38405;53.212;5.660;2022-10-31T07:07:59;8.50;99.90
52495;DHT22;38405;53.212;5.660;2022-10-31T07:10:27;8.60;99.90
52495;DHT22;38405;53.212;5.660;2022-10-31T07:12:57;8.60;99.90
52495;DHT22;38405;53.212;5.660;2022-10-31T07:15:24;8.70;99.90
52495;DHT22;38405;53.212;5.660;2022-10-31T07:17:50;8.80;99.90
52495;DHT22;38405;53.212;5.660;2022-10-31T07:20:16;8.90;99.90
52495;DHT22;38405;53.212;5.660;2022-10-31T07:22:42;8.90;99.90
52495;DHT22;38405;53.212;5.660;2022-10-31T07:25:09;9.00;99.90
52495;DHT22;38405;53.212;5.660;2022-10-31T07:27:38;9.10;99.90
52495;DHT22;38405;53.212;5.660;2022-10-31T07:30:04;9.50;99.90
52495;DHT22;38405;53.212;5.660;2022-10-31T07:32:44;9.60;99.90
52495;DHT22;38405;53.212;5.660;2022-10-31T07:35:12;10.00;99.90
52495;DHT22;38405;53.212;5.660;2022-10-31T07:37:39;10.20;99.90
52495;DHT22;38405;53.212;5.660;2022-10-31T07:40:06;10.30;99.90
52495;DHT22;38405;53.212;5.660;2022-10-31T07:42:36;10.30;99.90
52495;DHT22;38405;53.212;5.660;2022-10-31T07:45:03;10.40;99.90
52495;DHT22;38405;53.212;5.660;2022-10-31T07:47:29;10.40;99.90
52495;DHT22;38405;53.212;5.660;2022-10-31T07:49:54;10.90;99.90
52495;DHT22;38405;53.212;5.660;2022-10-31T07:52:20;11.20;99.90
52495;DHT22;38405;53.212;5.660;2022-10-31T07:54:46;11.40;99.90
52495;DHT22;38405;53.212;5.660;2022-10-31T07:57:11;11.70;99.90
52495;DHT22;38405;53.212;5.660;2022-10-31T07:59:37;12.00;99.90
52495;DHT22;38405;53.212;5.660;2022-10-31T08:02:02;12.50;99.90
52495;DHT22;38405;53.212;5.660;2022-10-31T08:04:28;13.10;99.90
52495;DHT22;38405;53.212;5.660;2022-10-31T08:06:56;13.60;99.90
52495;DHT22;38405;53.212;5.660;2022-10-31T08:09:22;14.00;99.90
52495;DHT22;38405;53.212;5.660;2022-10-31T08:11:50;14.20;99.90
52495;DHT22;38405;53.212;5.660;2022-10-31T08:14:16;14.10;99.90
52495;DHT22;38405;53.212;5.660;2022-10-31T08:16:41;13.90;99.90
52495;DHT22;38405;53.212;5.660;2022-10-31T08:19:07;13.50;99.90
52495;DHT22;38405;53.212;5.660;2022-10-31T08:21:33;13.20;99.90
52495;DHT22;38405;53.212;5.660;2022-10-31T08:23:58;13.30;99.90
52495;DHT22;38405;53.212;5.660;2022-10-31T08:26:24;13.00;99.90
52495;DHT22;38405;53.212;5.660;2022-10-31T08:28:49;13.10;99.90
52495;DHT22;38405;53.212;5.660;2022-10-31T08:31:15;13.10;99.90
52495;DHT22;38405;53.212;5.660;2022-10-31T08:33:41;13.10;99.90
52495;DHT22;38405;53.212;5.660;2022-10-31T08:36:07;13.20;99.90
52495;DHT22;38405;53.212;5.660;2022-10-31T08:38:33;13.30;99.90
52495;DHT22;38405;53.212;5.660;2022-10-31T08:40:58;13.50;99.90
52495;DHT22;38405;53.212;5.660;2022-10-31T08:43:24;13.60;99.90
52495;DHT22;38405;53.212;5.660;2022-10-31T08:45:50;13.80;99.90
52495;DHT22;38405;53.212;5.660;2022-10-31T08:48:16;13.90;99.90
52495;DHT22;38405;53.212;5.660;2022-10-31T08:50:43;14.10;99.90
52495;DHT22;38405;53.212;5.660;2022-10-31T08:53:18;14.30;99.90
52495;DHT22;38405;53.212;5.660;2022-10-31T08:55:45;14.50;99.90
52495;DHT22;38405;53.212;5.660;2022-10-31T08:58:16;14.60;99.90
52495;DHT22;38405;53.212;5.660;2022-10-31T09:00:43;14.70;99.90
52495;DHT22;38405;53.212;5.660;2022-10-31T09:03:11;14.90;99.90
52495;DHT22;38405;53.212;5.660;2022-10-31T09:05:37;15.00;99.90
52495;DHT22;38405;53.212;5.660;2022-10-31T09:08:05;15.00;99.90
52495;DHT22;38405;53.212;5.660;2022-10-31T09:10:34;15.00;99.90
52495;DHT22;38405;53.212;5.660;2022-10-31T09:15:28;15.40;99.90
52495;DHT22;38405;53.212;5.660;2022-10-31T09:17:53;15.60;99.90
52495;DHT22;38405;53.212;5.660;2022-10-31T09:20:20;15.70;99.90
52495;DHT22;38405;53.212;5.660;2022-10-31T09:22:46;15.90;99.90
52495;DHT22;38405;53.212;5.660;2022-10-31T09:25:12;16.10;99.90
52495;DHT22;38405;53.212;5.660;2022-10-31T09:27:37;16.20;99.90
52495;DHT22;38405;53.212;5.660;2022-10-31T09:30:04;16.40;99.90
52495;DHT22;38405;53.212;5.660;2022-10-31T09:32:30;16.60;99.90
52495;DHT22;38405;53.212;5.660;2022-10-31T09:34:55;16.80;99.90
52495;DHT22;38405;53.212;5.660;2022-10-31T09:37:21;16.80;99.90
52495;DHT22;38405;53.212;5.660;2022-10-31T09:39:46;16.80;99.90
52495;DHT22;38405;53.212;5.660;2022-10-31T09:42:30;16.80;99.90
52495;DHT22;38405;53.212;5.660;2022-10-31T09:50:45;17.10;99.90
52495;DHT22;38405;53.212;5.660;2022-10-31T09:53:40;17.10;99.90
52495;DHT22;38405;53.212;5.660;2022-10-31T09:56:18;16.80;99.90
52495;DHT22;38405;53.212;5.660;2022-10-31T09:58:47;16.80;99.90
52495;DHT22;38405;53.212;5.660;2022-10-31T10:01:26;16.90;99.90
52495;DHT22;38405;53.212;5.660;2022-10-31T10:03:58;17.00;99.90
52495;DHT22;38405;53.212;5.660;2022-10-31T10:06:27;17.00;99.90
52495;DHT22;38405;53.212;5.660;2022-10-31T10:08:55;17.00;99.90
52495;DHT22;38405;53.212;5.660;2022-10-31T10:30:23;16.60;99.90
52495;DHT22;38405;53.212;5.660;2022-10-31T10:36:02;16.20;99.90
52495;DHT22;38405;53.212;5.660;2022-10-31T10:38:52;16.00;99.90
52495;DHT22;38405;53.212;5.660;2022-10-31T10:41:23;15.80;99.90
52495;DHT22;38405;53.212;5.660;2022-10-31T10:43:50;15.70;99.90
52495;DHT22;38405;53.212;5.660;2022-10-31T10:52:18;15.60;99.90
52495;DHT22;38405;53.212;5.660;2022-10-31T10:57:41;15.90;99.90
52495;DHT22;38405;53.212;5.660;2022-10-31T11:00:24;16.10;99.90
52495;DHT22;38405;53.212;5.660;2022-10-31T11:02:51;16.40;99.90
52495;DHT22;38405;53.212;5.660;2022-10-31T11:05:28;16.60;99.90
52495;DHT22;38405;53.212;5.660;2022-10-31T11:07:56;16.70;99.90
52495;DHT22;38405;53.212;5.660;2022-10-31T11:10:21;16.80;99.90
52495;DHT22;38405;53.212;5.660;2022-10-31T11:15:48;16.80;99.90
52495;DHT22;38405;53.212;5.660;2022-10-31T11:18:22;16.80;99.90
52495;DHT22;38405;53.212;5.660;2022-10-31T11:20:56;16.80;99.90
52495;DHT22;38405;53.212;5.660;2022-10-31T11:23:25;17.00;99.90
52495;DHT22;38405;53.212;5.660;2022-10-31T11:25:57;17.20;99.90
52495;DHT22;38405;53.212;5.660;2022-10-31T11:28:23;17.30;99.90
52495;DHT22;38405;53.212;5.660;2022-10-31T11:30:58;17.30;99.90
52495;DHT22;38405;53.212;5.660;2022-10-31T11:33:37;17.40;99.90
52495;DHT22;38405;53.212;5.660;2022-10-31T11:36:21;17.40;99.90
52495;DHT22;38405;53.212;5.660;2022-10-31T11:38:48;17.20;99.90
52495;DHT22;38405;53.212;5.660;2022-10-31T11:41:18;17.00;99.90
52495;DHT22;38405;53.212;5.660;2022-10-31T11:43:53;16.80;99.90
52495;DHT22;38405;53.212;5.660;2022-10-31T11:46:35;16.80;99.90
52495;DHT22;38405;53.212;5.660;2022-10-31T11:49:04;16.80;99.90
52495;DHT22;38405;53.212;5.660;2022-10-31T11:51:33;17.00;99.90
52495;DHT22;38405;53.212;5.660;2022-10-31T11:54:01;17.20;99.90
52495;DHT22;38405;53.212;5.660;2022-10-31T11:56:36;17.30;99.90
52495;DHT22;38405;53.212;5.660;2022-10-31T11:59:05;17.30;99.90
52495;DHT22;38405;53.212;5.660;2022-10-31T12:01:32;17.30;99.90
52495;DHT22;38405;53.212;5.660;2022-10-31T12:04:08;17.20;99.90
52495;DHT22;38405;53.212;5.660;2022-10-31T12:06:36;17.20;99.90
52495;DHT22;38405;53.212;5.660;2022-10-31T12:09:25;17.20;99.90
52495;DHT22;38405;53.212;5.660;2022-10-31T12:12:12;17.10;99.90
52495;DHT22;38405;53.212;5.660;2022-10-31T12:17:20;16.90;99.90
52495;DHT22;38405;53.212;5.660;2022-10-31T12:20:01;16.70;99.90
52495;DHT22;38405;53.212;5.660;2022-10-31T12:25:44;16.80;99.90
52495;DHT22;38405;53.212;5.660;2022-10-31T12:37:13;16.50;99.90
52495;DHT22;38405;53.212;5.660;2022-10-31T12:48:04;16.10;99.90
52495;DHT22;38405;53.212;5.660;2022-10-31T12:50:50;16.10;99.90
52495;DHT22;38405;53.212;5.660;2022-10-31T12:53:42;16.20;99.90
52495;DHT22;38405;53.212;5.660;2022-10-31T13:01:34;16.40;99.90
52495;DHT22;38405;53.212;5.660;2022-10-31T13:04:05;16.40;99.90
52495;DHT22;38405;53.212;5.660;2022-10-31T13:06:42;16.30;99.90
52495;DHT22;38405;53.212;5.660;2022-10-31T13:09:13;16.20;99.90
52495;DHT22;38405;53.212;5.660;2022-10-31T13:11:46;16.30;99.90
52495;DHT22;38405;53.212;5.660;2022-10-31T13:17:34;16.50;99.90
52495;DHT22;38405;53.212;5.660;2022-10-31T13:20:17;16.60;99.90
52495;DHT22;38405;53.212;5.660;2022-10-31T13:22:48;16.70;99.90
52495;DHT22;38405;53.212;5.660;2022-10-31T13:25:19;16.80;99.90
52495;DHT22;38405;53.212;5.660;2022-10-31T13:27:51;16.90;99.90
52495;DHT22;38405;53.212;5.660;2022-10-31T13:30:20;16.90;99.90
52495;DHT22;38405;53.212;5.660;2022-10-31T13:35:44;16.80;99.90
52495;DHT22;38405;53.212;5.660;2022-10-31T13:38:44;16.80;99.90
52495;DHT22;38405;53.212;5.660;2022-10-31T13:41:35;16.80;99.90
52495;DHT22;38405;53.212;5.660;2022-10-31T13:44:26;16.70;99.90
52495;DHT22;38405;53.212;5.660;2022-10-31T13:46:56;16.70;99.90
52495;DHT22;38405;53.212;5.660;2022-10-31T13:54:41;16.50;99.90
52495;DHT22;38405;53.212;5.660;2022-10-31T13:57:19;16.50;99.90
52495;DHT22;38405;53.212;5.660;2022-10-31T14:00:00;16.40;99.90
52495;DHT22;38405;53.212;5.660;2022-10-31T14:02:31;16.30;99.90
52495;DHT22;38405;53.212;5.660;2022-10-31T14:05:03;16.20;99.90
52495;DHT22;38405;53.212;5.660;2022-10-31T14:07:31;16.20;99.90
52495;DHT22;38405;53.212;5.660;2022-10-31T14:10:06;16.20;99.90
52495;DHT22;38405;53.212;5.660;2022-10-31T14:12:46;16.30;99.90
52495;DHT22;38405;53.212;5.660;2022-10-31T14:18:00;16.10;99.90
52495;DHT22;38405;53.212;5.660;2022-10-31T14:20:46;16.00;99.90
52495;DHT22;38405;53.212;5.660;2022-10-31T14:28:48;15.60;99.90
52495;DHT22;38405;53.212;5.660;2022-10-31T14:34:18;15.40;99.90
52495;DHT22;38405;53.212;5.660;2022-10-31T14:37:15;15.40;99.90
52495;DHT22;38405;53.212;5.660;2022-10-31T14:53:14;15.30;99.90
52495;DHT22;38405;53.212;5.660;2022-10-31T14:55:46;15.20;99.90
52495;DHT22;38405;53.212;5.660;2022-10-31T14:58:17;15.20;99.90
52495;DHT22;38405;53.212;5.660;2022-10-31T15:00:44;15.20;99.90
52495;DHT22;38405;53.212;5.660;2022-10-31T15:03:18;15.20;99.90
52495;DHT22;38405;53.212;5.660;2022-10-31T15:05:54;15.10;99.90
52495;DHT22;38405;53.212;5.660;2022-10-31T15:10:52;15.00;99.90
52495;DHT22;38405;53.212;5.660;2022-10-31T15:13:20;15.10;99.90
52495;DHT22;38405;53.212;5.660;2022-10-31T15:15:52;15.10;99.90
52495;DHT22;38405;53.212;5.660;2022-10-31T15:18:25;15.00;99.90
52495;DHT22;38405;53.212;5.660;2022-10-31T15:20:53;15.00;99.90
52495;DHT22;38405;53.212;5.660;2022-10-31T15:23:28;15.00;99.90
52495;DHT22;38405;53.212;5.660;2022-10-31T15:26:02;15.00;99.90
52495;DHT22;38405;53.212;5.660;2022-10-31T15:28:29;15.00;99.90
52495;DHT22;38405;53.212;5.660;2022-10-31T15:30:58;14.90;99.90
52495;DHT22;38405;53.212;5.660;2022-10-31T15:33:47;14.90;99.90
52495;DHT22;38405;53.212;5.660;2022-10-31T15:36:25;14.90;99.90
52495;DHT22;38405;53.212;5.660;2022-10-31T15:38:51;14.80;99.90
52495;DHT22;38405;53.212;5.660;2022-10-31T15:41:27;14.80;99.90
52495;DHT22;38405;53.212;5.660;2022-10-31T15:43:55;14.80;99.90
52495;DHT22;38405;53.212;5.660;2022-10-31T15:46:21;14.80;99.90
52495;DHT22;38405;53.212;5.660;2022-10-31T15:48:47;14.70;99.90
52495;DHT22;38405;53.212;5.660;2022-10-31T15:51:13;14.80;99.90
52495;DHT22;38405;53.212;5.660;2022-10-31T15:53:49;14.70;99.90
52495;DHT22;38405;53.212;5.660;2022-10-31T15:56:21;14.60;99.90
52495;DHT22;38405;53.212;5.660;2022-10-31T15:58:49;14.60;99.90
52495;DHT22;38405;53.212;5.660;2022-10-31T16:01:21;14.60;99.90
52495;DHT22;38405;53.212;5.660;2022-10-31T16:04:03;14.50;99.90
52495;DHT22;38405;53.212;5.660;2022-10-31T16:06:30;14.50;99.90
52495;DHT22;38405;53.212;5.660;2022-10-31T16:08:55;14.40;99.90
52495;DHT22;38405;53.212;5.660;2022-10-31T16:11:38;14.40;99.90
52495;DHT22;38405;53.212;5.660;2022-10-31T16:14:16;14.40;99.90
52495;DHT22;38405;53.212;5.660;2022-10-31T16:16:48;14.40;99.90
52495;DHT22;38405;53.212;5.660;2022-10-31T16:19:38;14.30;99.90
52495;DHT22;38405;53.212;5.660;2022-10-31T16:22:13;14.30;99.90
52495;DHT22;38405;53.212;5.660;2022-10-31T16:24:53;14.20;99.90
52495;DHT22;38405;53.212;5.660;2022-10-31T16:27:27;14.20;99.90
52495;DHT22;38405;53.212;5.660;2022-10-31T16:29:56;14.20;99.90
52495;DHT22;38405;53.212;5.660;2022-10-31T16:35:23;14.20;99.90
52495;DHT22;38405;53.212;5.660;2022-10-31T16:37:50;14.20;99.90
52495;DHT22;38405;53.212;5.660;2022-10-31T16:40:16;14.20;99.90
52495;DHT22;38405;53.212;5.660;2022-10-31T16:42:43;14.20;99.90
52495;DHT22;38405;53.212;5.660;2022-10-31T16:45:26;14.20;99.90
52495;DHT22;38405;53.212;5.660;2022-10-31T16:47:53;14.20;99.90
52495;DHT22;38405;53.212;5.660;2022-10-31T16:50:24;14.20;99.90
52495;DHT22;38405;53.212;5.660;2022-10-31T16:52:51;14.30;99.90
52495;DHT22;38405;53.212;5.660;2022-10-31T16:55:18;14.20;99.90
52495;DHT22;38405;53.212;5.660;2022-10-31T16:57:50;14.20;99.90
52495;DHT22;38405;53.212;5.660;2022-10-31T17:00:19;14.20;99.90
52495;DHT22;38405;53.212;5.660;2022-10-31T17:02:46;14.20;99.90
52495;DHT22;38405;53.212;5.660;2022-10-31T17:05:13;14.40;99.90
52495;DHT22;38405;53.212;5.660;2022-10-31T17:07:40;14.20;99.90
52495;DHT22;38405;53.212;5.660;2022-10-31T17:10:06;14.20;99.90
52495;DHT22;38405;53.212;5.660;2022-10-31T17:12:32;14.20;99.90
52495;DHT22;38405;53.212;5.660;2022-10-31T17:14:58;14.30;99.90
52495;DHT22;38405;53.212;5.660;2022-10-31T17:17:24;14.10;99.90
52495;DHT22;38405;53.212;5.660;2022-10-31T17:19:49;14.00;99.90
52495;DHT22;38405;53.212;5.660;2022-10-31T17:22:15;14.10;99.90
52495;DHT22;38405;53.212;5.660;2022-10-31T17:24:41;14.10;99.90
52495;DHT22;38405;53.212;5.660;2022-10-31T17:27:06;14.10;99.90
52495;DHT22;38405;53.212;5.660;2022-10-31T17:29:32;14.10;99.90
52495;DHT22;38405;53.212;5.660;2022-10-31T17:31:58;14.10;99.90
52495;DHT22;38405;53.212;5.660;2022-10-31T17:34:24;14.20;99.90
52495;DHT22;38405;53.212;5.660;2022-10-31T17:36:51;14.10;99.90
52495;DHT22;38405;53.212;5.660;2022-10-31T17:39:18;14.10;99.90
52495;DHT22;38405;53.212;5.660;2022-10-31T17:41:43;14.10;99.90
52495;DHT22;38405;53.212;5.660;2022-10-31T17:44:11;14.10;99.90
52495;DHT22;38405;53.212;5.660;2022-10-31T17:46:37;14.10;99.90
52495;DHT22;38405;53.212;5.660;2022-10-31T17:49:03;14.10;99.90
52495;DHT22;38405;53.212;5.660;2022-10-31T17:51:31;14.10;99.90
52495;DHT22;38405;53.212;5.660;2022-10-31T17:53:57;14.30;99.90
52495;DHT22;38405;53.212;5.660;2022-10-31T17:56:23;14.10;99.90
52495;DHT22;38405;53.212;5.660;2022-10-31T17:58:49;14.10;99.90
52495;DHT22;38405;53.212;5.660;2022-10-31T18:01:16;14.60;99.90
52495;DHT22;38405;53.212;5.660;2022-10-31T18:03:42;14.30;99.90
52495;DHT22;38405;53.212;5.660;2022-10-31T18:06:09;14.10;99.90
52495;DHT22;38405;53.212;5.660;2022-10-31T18:08:37;14.10;99.90